Time;durP1;ratioP1;P1;durP2;ratioP2;P2;SDS_P1;SDS_P2;PMS_P1;PMS_P2;Temp;Humidity;BMP_temperature;BMP_pressure;BME280_temperature;BME280_humidity;BME280_pressure;Samples;Min_cycle;Max_cycle;Signal;HPM_P1;HPM_P2
2022/12/09 00:00:54;;;;;;;;;;;;;;;18.72;63.06;97755.13;2062313;28;20158;-74
2022/12/09 00:01:55;;;;;;;3.05;1.40;;;;;;;18.76;63.20;97747.47;2062381;28;19936;-74
2022/12/09 00:02:56;;;;;;;;;;;;;;;18.69;63.21;97744.84;2051574;28;20076;-75
2022/12/09 00:03:57;;;;;;;1.67;1.50;;;;;;;18.75;63.25;97748.53;2059831;28;19929;-74
2022/12/09 00:04:59;;;;;;;1.55;1.23;;;;;;;18.80;63.18;97748.66;2059471;28;20057;-74
2022/12/09 00:06:05;;;;;;;2.55;1.58;;;;;;;18.83;63.09;97750.06;2053192;28;20186;-74
2022/12/09 00:07:07;;;;;;;2.75;1.42;;;;;;;18.84;63.05;97752.53;2056752;28;20607;-74
2022/12/09 00:08:07;;;;;;;1.52;1.30;;;;;;;18.85;62.93;97751.47;2062762;28;20053;-74
2022/12/09 00:09:13;;;;;;;;;;;;;;;18.74;63.14;97752.25;2060634;28;21587;-74
2022/12/09 00:10:14;;;;;;;2.00;1.30;;;;;;;18.78;63.01;97747.22;2059327;28;21254;-74
2022/12/09 00:11:16;;;;;;;;;;;;;;;18.67;63.18;97760.38;2062281;28;20046;-74
2022/12/09 00:12:16;;;;;;;3.53;1.20;;;;;;;18.72;63.07;97746.25;2059613;28;19928;-74
2022/12/09 00:13:18;;;;;;;;;;;;;;;18.65;63.32;97758.94;2053346;28;20644;-74
2022/12/09 00:14:20;;;;;;;2.17;1.50;;;;;;;18.71;63.18;97750.78;2061932;28;19936;-74
2022/12/09 00:15:22;;;;;;;1.73;1.50;;;;;;;18.75;63.01;97756.59;2062538;28;20061;-74
2022/12/09 00:16:23;;;;;;;1.98;1.30;;;;;;;18.79;63.08;97749.69;2059631;28;20045;-74
2022/12/09 00:17:25;;;;;;;1.90;1.30;;;;;;;18.80;63.05;97748.66;2059030;28;20049;-74
2022/12/09 00:18:26;;;;;;;1.95;1.17;;;;;;;18.81;63.00;97744.94;2062641;28;20050;-74
2022/12/09 00:19:28;;;;;;;;;;;;;;;18.68;63.30;97750.44;2064533;28;20684;-74
2022/12/09 00:20:29;;;;;;;;;;;;;;;18.60;63.34;97748.06;2066798;28;20414;-75
2022/12/09 00:21:31;;;;;;;;;;;;;;;18.54;63.62;97749.78;2060370;28;19921;-74
2022/12/09 00:22:32;;;;;;;1.10;1.00;;;;;;;18.62;63.47;97745.97;2064828;28;19999;-74
2022/12/09 00:23:33;;;;;;;1.70;1.27;;;;;;;18.66;63.02;97739.09;2061343;28;20056;-73
2022/12/09 00:24:35;;;;;;;;;;;;;;;18.59;63.22;97741.88;2063778;28;20128;-74
2022/12/09 00:25:36;;;;;;;1.55;1.45;;;;;;;18.63;63.18;97736.84;2062525;28;20655;-73
2022/12/09 00:26:38;;;;;;;1.40;1.30;;;;;;;18.66;63.29;97734.53;2064429;28;20053;-74
2022/12/09 00:27:38;;;;;;;2.17;1.60;;;;;;;18.69;63.15;97730.56;2054930;28;20050;-73
2022/12/09 00:28:40;;;;;;;;;;;;;;;18.58;63.43;97734.03;2058926;28;20108;-74
2022/12/09 00:29:42;;;;;;;2.58;1.50;;;;;;;18.62;63.50;97732.53;2062148;28;20408;-74
2022/12/09 00:30:44;;;;;;;1.77;1.42;;;;;;;18.66;63.11;97728.34;2052084;28;27082;-74
2022/12/09 00:31:45;;;;;;;1.98;1.20;;;;;;;18.67;62.91;97728.13;2063102;28;20176;-74
2022/12/09 00:32:47;;;;;;;;;;;;;;;18.57;63.61;97724.34;2062306;28;20108;-74
2022/12/09 00:33:47;;;;;;;1.70;1.15;;;;;;;18.58;63.27;97734.03;2049194;28;19929;-74
2022/12/09 00:34:49;;;;;;;;;;;;;;;18.49;63.49;97737.00;2057342;28;20045;-73
2022/12/09 00:35:50;;;;;;;2.70;1.20;;;;;;;18.53;63.61;97730.16;2058138;28;19992;-74
2022/12/09 00:36:51;;;;;;;;;;;;;;;18.44;63.65;97725.31;2057267;28;20454;-74
2022/12/09 00:37:52;;;;;;;3.28;1.23;;;;;;;18.53;63.49;97727.47;2056686;28;20109;-74
2022/12/09 00:38:54;;;;;;;;;;;;;;;18.45;63.69;97733.16;2058462;28;21499;-74
2022/12/09 00:39:55;;;;;;;2.33;1.25;;;;;;;18.52;63.50;97725.00;2048621;28;19933;-73
2022/12/09 00:40:56;;;;;;;;;;;;;;;18.44;63.66;97734.19;2055111;28;20057;-74
2022/12/09 00:41:58;;;;;;;;;;;;;;;18.37;63.93;97733.44;2067898;28;20469;-74
2022/12/09 00:42:58;;;;;;;3.95;1.33;;;;;;;18.46;63.68;97732.09;2057130;28;19936;-74
2022/12/09 00:44:00;;;;;;;;;;;;;;;18.40;63.62;97732.19;2052863;28;20041;-74
2022/12/09 00:45:03;;;;;;;1.63;1.30;;;;;;;18.46;63.49;97742.00;2054478;28;21858;-73
2022/12/09 00:46:06;;;;;;;2.65;1.48;;;;;;;18.52;63.27;97736.56;2053998;28;20538;-74
2022/12/09 00:47:06;;;;;;;1.45;1.30;;;;;;;18.53;63.27;97730.16;2056103;28;20057;-74
2022/12/09 00:48:08;;;;;;;;;;;;;;;18.43;63.62;97745.97;2055573;28;20062;-74
2022/12/09 00:49:10;;;;;;;1.50;1.27;;;;;;;18.49;63.21;97747.75;2052381;28;20011;-74
2022/12/09 00:50:11;;;;;;;3.28;1.30;;;;;;;18.53;63.29;97740.09;2053689;28;21364;-74
2022/12/09 00:51:14;;;;;;;1.35;1.20;;;;;;;18.54;63.30;97737.16;2058284;28;20558;-73
2022/12/09 00:52:16;;;;;;;1.77;1.20;;;;;;;18.53;63.24;97743.59;2058908;28;20108;-73
2022/12/09 00:53:17;;;;;;;2.67;1.45;;;;;;;18.54;62.98;97744.41;2059358;28;20543;-74
2022/12/09 00:54:18;;;;;;;;;;;;;;;18.42;63.42;97748.88;2057609;28;20060;-74
2022/12/09 00:55:19;;;;;;;2.03;1.40;;;;;;;18.47;63.42;97749.84;2053478;28;20390;-73
2022/12/09 00:56:23;;;;;;;;;;;;;;;18.37;63.50;97744.19;2058583;28;20045;-74
2022/12/09 00:57:24;;;;;;;2.58;1.70;;;;;;;18.43;63.52;97743.28;2060406;28;20490;-73
2022/12/09 00:58:25;;;;;;;;;;;;;;;18.35;63.65;97745.44;2056023;28;20057;-74
2022/12/09 00:59:26;;;;;;;2.53;1.20;;;;;;;18.39;63.68;97739.41;2057847;28;19999;-74
2022/12/09 01:00:30;;;;;;;1.38;1.15;;;;;;;18.44;63.45;97736.03;2059477;28;20041;-74
2022/12/09 01:01:31;;;;;;;1.25;1.15;;;;;;;18.47;63.35;97740.97;2056469;28;20053;-74
2022/12/09 01:02:32;;;;;;;;;;;;;;;18.35;63.73;97740.88;2057825;28;20115;-74
2022/12/09 01:03:33;;;;;;;;;;;;;;;18.27;64.00;97749.22;2054678;28;20701;-73
2022/12/09 01:04:34;;;;;;;2.97;1.60;;;;;;;18.32;64.00;97746.72;2060757;28;19931;-73
2022/12/09 01:05:35;;;;;;;1.77;1.38;;;;;;;18.38;63.66;97751.19;2054569;28;20239;-73
2022/12/09 01:06:37;;;;;;;;;;;;;;;18.30;63.70;97748.78;2058468;28;20054;-73
2022/12/09 01:07:37;;;;;;;;;;;;;;;18.24;63.75;97755.88;2057291;28;19921;-73
2022/12/09 01:08:40;;;;;;;2.00;1.87;;;;;;;18.29;63.67;97755.22;2064321;28;20760;-73
2022/12/09 01:09:40;;;;;;;0.82;0.82;;;;;;;18.35;63.48;97751.63;2057561;28;20336;-73
2022/12/09 01:10:42;;;;;;;;;;;;;;;18.28;63.85;97758.94;2055010;28;20068;-74
2022/12/09 01:11:43;;;;;;;1.30;1.20;;;;;;;18.34;63.48;97762.59;2063510;28;19925;-73
2022/12/09 01:12:45;;;;;;;;;;;;;;;18.27;63.91;97762.66;2059321;28;20049;-74
2022/12/09 01:13:46;;;;;;;1.40;1.20;;;;;;;18.31;63.60;97766.56;2057862;28;19931;-74
2022/12/09 01:14:48;;;;;;;1.73;1.25;;;;;;;18.37;63.37;97759.47;2055429;28;20045;-74
2022/12/09 01:15:50;;;;;;;2.08;1.85;;;;;;;18.40;63.20;97759.84;2055147;28;20147;-73
2022/12/09 01:16:52;;;;;;;1.50;1.20;;;;;;;18.39;63.39;97762.75;2060341;28;20988;-73
2022/12/09 01:17:53;;;;;;;1.85;1.35;;;;;;;18.40;63.36;97762.53;2048689;28;20157;-73
2022/12/09 01:18:56;;;;;;;;;;;;;;;18.29;63.50;97765.94;2058447;28;20074;-74
2022/12/09 01:19:56;;;;;;;1.95;1.42;;;;;;;18.32;63.58;97768.19;2055806;28;20319;-73
2022/12/09 01:20:58;;;;;;;;;;;;;;;18.22;63.78;97765.19;2058400;28;20049;-74
2022/12/09 01:21:59;;;;;;;;;;;;;;;18.14;63.95;97765.50;2061833;28;19970;-74
2022/12/09 01:23:01;;;;;;;1.83;1.58;;;;;;;18.19;63.81;97758.44;2054498;28;20002;-73
2022/12/09 01:24:08;;;;;;;1.33;1.10;;;;;;;18.29;63.74;97760.56;2053409;28;20049;-74
2022/12/09 01:25:08;;;;;;;1.60;1.05;;;;;;;18.31;63.42;97748.56;2055459;28;20045;-74
2022/12/09 01:26:10;;;;;;;;;;;;;;;18.20;63.84;97760.06;2059778;28;20687;-74
2022/12/09 01:27:11;;;;;;;4.05;1.58;;;;;;;18.25;63.55;97752.16;2059799;28;20223;-74
2022/12/09 01:28:12;;;;;;;;;;;;;;;18.19;63.70;97749.53;2056464;28;20073;-74
2022/12/09 01:29:13;;;;;;;1.58;1.40;;;;;;;18.22;63.67;97751.75;2057348;28;20015;-74
2022/12/09 01:30:15;;;;;;;;;;;;;;;18.15;63.85;97740.28;2056839;28;20524;-74
2022/12/09 01:31:18;;;;;;;;;;;;;;;18.07;64.19;97744.06;2054774;28;19936;-74
2022/12/09 01:32:19;;;;;;;1.92;1.42;;;;;;;18.15;64.07;97743.78;2053770;28;21040;-74
2022/12/09 01:33:20;;;;;;;1.42;1.00;;;;;;;18.23;63.66;97743.50;2048298;28;21322;-73
2022/12/09 01:34:22;;;;;;;;;;;;;;;18.14;63.79;97738.66;2049780;28;20073;-74
2022/12/09 01:35:22;;;;;;;1.55;1.33;;;;;;;18.18;63.72;97735.28;2053084;28;19925;-74
2022/12/09 01:36:25;;;;;;;;;;;;;;;18.13;63.87;97739.69;2058511;28;20139;-74
2022/12/09 01:37:26;;;;;;;1.60;1.10;;;;;;;18.18;63.78;97739.84;2061057;28;19929;-74
2022/12/09 01:38:27;;;;;;;;;;;;;;;18.11;63.90;97734.56;2064425;28;20049;-74
2022/12/09 01:39:28;;;;;;;1.73;1.08;;;;;;;18.17;63.66;97730.16;2054040;28;19931;-74
2022/12/09 01:40:30;;;;;;;;;;;;;;;18.07;63.99;97736.84;2061652;28;20049;-74
2022/12/09 01:41:30;;;;;;;;;;;;;;;18.01;64.37;97737.72;2059106;28;19922;-74
2022/12/09 01:42:33;;;;;;;1.37;0.97;;;;;;;18.10;63.86;97738.25;2054686;28;19932;-74
2022/12/09 01:43:34;;;;;;;1.77;1.58;;;;;;;18.17;63.50;97740.91;2045958;28;20054;-74
2022/12/09 01:44:35;;;;;;;;;;;;;;;18.06;63.93;97737.91;2057753;28;20053;-74
2022/12/09 01:45:40;;;;;;;1.33;0.88;;;;;;;18.13;63.86;97734.31;2059300;28;19924;-73
2022/12/09 01:46:44;;;;;;;2.30;1.27;;;;;;;18.18;63.63;97729.09;2050336;28;23723;-73
2022/12/09 01:47:45;;;;;;;2.10;1.30;;;;;;;18.20;63.44;97727.03;2060968;28;20050;-74
2022/12/09 01:48:47;;;;;;;1.13;0.90;;;;;;;18.20;63.39;97724.34;2058004;28;20440;-73
2022/12/09 01:49:48;;;;;;;1.73;1.23;;;;;;;18.21;63.31;97718.75;2056520;28;20110;-74
2022/12/09 01:50:52;;;;;;;;;;;;;;;18.11;63.84;97726.50;2055132;28;20154;-73
2022/12/09 01:52:02;;;;;;;1.23;1.13;;;;;;;18.14;63.40;97723.38;2061165;28;19929;-73
2022/12/09 01:53:05;;;;;;;1.83;1.20;;;;;;;18.15;63.73;97719.63;2061423;28;20065;-74
2022/12/09 01:54:08;;;;;;;1.38;0.98;;;;;;;18.16;63.55;97715.09;2055507;28;20050;-74
2022/12/09 01:55:09;;;;;;;1.83;1.20;;;;;;;18.16;63.46;97712.41;2057150;28;20566;-74
2022/12/09 01:56:14;;;;;;;1.75;1.40;;;;;;;18.18;63.55;97715.69;2051588;28;20060;-73
2022/12/09 01:57:15;;;;;;;1.35;0.88;;;;;;;18.18;63.57;97713.00;2061525;28;20063;-73
2022/12/09 01:58:17;;;;;;;;;;;;;;;18.04;63.86;97710.47;2059083;28;20061;-73
2022/12/09 01:59:18;;;;;;;1.45;1.10;;;;;;;18.09;63.64;97715.16;2057780;28;19975;-73
2022/12/09 02:00:20;;;;;;;;;;;;;;;18.00;63.68;97714.63;2060560;28;20037;-74
2022/12/09 02:01:21;;;;;;;1.40;1.02;;;;;;;18.05;63.87;97719.31;2056100;28;21106;-73
2022/12/09 02:02:26;;;;;;;;;;;;;;;17.97;63.95;97715.09;2049710;28;20065;-73
2022/12/09 02:03:27;;;;;;;2.10;1.58;;;;;;;18.00;64.07;97722.69;2056417;28;19933;-73
2022/12/09 02:04:32;;;;;;;;;;;;;;;17.93;64.23;97721.91;2058305;28;20583;-74
2022/12/09 02:05:34;;;;;;;2.72;1.30;;;;;;;18.01;63.79;97718.94;2055756;28;20540;-72
2022/12/09 02:06:37;;;;;;;2.42;1.13;;;;;;;18.07;63.69;97726.09;2054883;28;20079;-73
2022/12/09 02:07:38;;;;;;;1.48;1.02;;;;;;;18.10;63.71;97716.78;2058956;28;20068;-73
2022/12/09 02:08:39;;;;;;;;;;;;;;;17.99;63.83;97720.22;2057550;28;21123;-74
2022/12/09 02:09:41;;;;;;;1.40;1.30;;;;;;;18.00;63.80;97722.69;2041992;28;20526;-73
2022/12/09 02:10:50;;;;;;;2.80;1.33;;;;;;;18.06;63.61;97726.34;2058083;28;20057;-74
2022/12/09 02:12:04;;;;;;;1.38;1.05;;;;;;;18.06;63.80;97721.78;2064686;28;20053;-74
2022/12/09 02:13:15;;;;;;;1.20;1.10;;;;;;;18.06;63.45;97724.47;2057387;28;20472;-74
2022/12/09 02:14:20;;;;;;;1.27;1.17;;;;;;;18.07;63.67;97719.94;2051104;28;20053;-74
2022/12/09 02:15:25;;;;;;;1.33;1.15;;;;;;;18.06;63.75;97726.34;2054101;28;20348;-74
2022/12/09 02:16:29;;;;;;;2.30;1.27;;;;;;;18.07;63.48;97720.75;2058673;28;20049;-74
2022/12/09 02:17:39;;;;;;;1.80;1.33;;;;;;;18.06;63.24;97723.66;2059587;28;20125;-74
2022/12/09 02:18:46;;;;;;;3.55;1.23;;;;;;;18.06;63.36;97716.44;2052832;28;20062;-74
2022/12/09 02:20:00;;;;;;;1.63;0.90;;;;;;;18.06;63.56;97715.63;2046099;28;20054;-74
2022/12/09 02:21:06;;;;;;;1.65;1.33;;;;;;;18.03;63.71;97711.50;2062317;28;20064;-74
2022/12/09 02:22:11;;;;;;;1.55;0.98;;;;;;;18.05;63.65;97712.13;2059890;28;20069;-73
2022/12/09 02:23:22;;;;;;;1.63;1.30;;;;;;;18.06;63.45;97708.38;2055923;28;20053;-73
2022/12/09 02:24:34;;;;;;;1.52;1.17;;;;;;;18.02;63.78;97693.75;2063393;28;20044;-74
2022/12/09 02:25:42;;;;;;;1.73;0.90;;;;;;;18.03;63.60;97705.31;2050974;28;20054;-74
2022/12/09 02:26:45;;;;;;;2.17;1.35;;;;;;;18.03;63.41;97702.66;2057150;28;20058;-74
2022/12/09 02:27:57;;;;;;;1.35;1.25;;;;;;;18.01;63.66;97700.16;2052667;28;20116;-74
2022/12/09 02:29:29;;;;;;;1.02;0.85;;;;;;;17.96;63.59;97700.00;2058177;28;20112;-74
2022/12/09 02:30:36;;;;;;;2.50;1.38;;;;;;;17.97;63.54;97701.66;2058972;28;20049;-74
2022/12/09 02:31:51;;;;;;;2.97;1.27;;;;;;;17.99;63.68;97704.94;2056260;28;20069;-74
2022/12/09 02:33:18;;;;;;;0.98;0.90;;;;;;;17.96;63.87;97693.81;2060670;28;20091;-74
2022/12/09 02:34:22;;;;;;;3.13;1.50;;;;;;;17.97;63.42;97690.09;2068105;28;20038;-74
2022/12/09 02:35:27;;;;;;;1.38;1.00;;;;;;;17.98;63.48;97687.19;2055664;28;20168;-74
2022/12/09 02:36:36;;;;;;;1.17;1.08;;;;;;;17.99;63.48;97693.38;2062123;28;20045;-74
2022/12/09 02:37:43;;;;;;;1.17;1.08;;;;;;;17.98;63.76;97687.19;2050863;28;20053;-74
2022/12/09 02:38:46;;;;;;;1.38;0.98;;;;;;;17.97;63.68;97685.56;2064564;28;20061;-74
2022/12/09 02:39:53;;;;;;;1.02;0.93;;;;;;;17.98;63.61;97689.06;2059487;28;20516;-74
2022/12/09 02:40:59;;;;;;;1.00;0.73;;;;;;;17.99;63.38;97694.19;2061655;28;20084;-73
2022/12/09 02:42:06;;;;;;;1.48;1.20;;;;;;;17.98;63.44;97684.53;2055460;28;20846;-74
2022/12/09 02:43:08;;;;;;;1.27;1.15;;;;;;;17.97;63.38;97690.09;2055804;28;20054;-73
2022/12/09 02:44:14;;;;;;;1.35;1.00;;;;;;;17.97;63.59;97688.25;2057311;28;20056;-73
2022/12/09 02:45:17;;;;;;;1.35;1.10;;;;;;;17.97;63.64;97684.72;2060705;28;20042;-73
2022/12/09 02:46:21;;;;;;;1.30;1.20;;;;;;;17.97;63.51;97685.56;2061606;28;20137;-74
2022/12/09 02:47:27;;;;;;;1.63;1.30;;;;;;;17.97;63.40;97674.84;2052493;28;20048;-74
2022/12/09 02:48:33;;;;;;;1.20;1.10;;;;;;;17.95;63.63;97684.97;2050999;28;20064;-73
2022/12/09 02:49:39;;;;;;;1.10;0.90;;;;;;;17.95;63.33;97674.22;2062447;28;20050;-73
2022/12/09 02:50:44;;;;;;;2.58;1.55;;;;;;;17.95;63.39;97674.22;2049894;28;20053;-73
2022/12/09 02:51:48;;;;;;;1.17;0.75;;;;;;;17.94;63.63;97669.06;2053546;28;20053;-73
2022/12/09 02:52:53;;;;;;;1.33;1.20;;;;;;;17.94;63.51;97663.72;2056663;28;20107;-73
2022/12/09 02:53:58;;;;;;;1.83;1.20;;;;;;;17.93;63.67;97657.53;2059157;28;20084;-73
2022/12/09 02:55:02;;;;;;;1.55;1.00;;;;;;;17.93;63.59;97660.22;2055911;28;20049;-74
2022/12/09 02:56:06;;;;;;;0.93;0.88;;;;;;;17.91;63.43;97664.16;2052427;28;20042;-73
2022/12/09 02:57:12;;;;;;;2.58;1.35;;;;;;;17.92;63.39;97658.59;2054291;28;20061;-74
2022/12/09 02:58:13;;;;;;;1.65;1.10;;;;;;;17.90;63.48;97649.94;2052044;28;20053;-74
2022/12/09 02:59:15;;;;;;;;;;;;;;;17.78;64.07;97655.22;2054231;28;20060;-74
2022/12/09 03:00:16;;;;;;;1.95;1.45;;;;;;;17.81;64.01;97643.22;2060853;28;20451;-73
2022/12/09 03:01:23;;;;;;;2.38;1.27;;;;;;;17.86;63.56;97638.84;2057712;28;20065;-74
2022/12/09 03:02:28;;;;;;;1.92;0.90;;;;;;;17.86;63.66;97638.03;2045974;28;20789;-74
2022/12/09 03:03:32;;;;;;;1.38;1.08;;;;;;;17.87;63.72;97642.34;2055252;28;20465;-74
2022/12/09 03:04:33;;;;;;;1.45;1.13;;;;;;;17.89;63.55;97640.25;2051598;28;21529;-73
2022/12/09 03:05:41;;;;;;;;;;;;;;;17.74;64.09;97634.38;2062356;28;20555;-73
2022/12/09 03:06:48;;;;;;;1.95;1.10;;;;;;;17.79;63.85;97637.25;2055225;28;20454;-74
2022/12/09 03:08:00;;;;;;;1.40;1.15;;;;;;;17.81;63.68;97638.69;2056341;28;20057;-73
2022/12/09 03:09:06;;;;;;;0.65;0.65;;;;;;;17.83;63.71;97641.97;2066213;28;20748;-74
2022/12/09 03:10:16;;;;;;;1.25;0.88;;;;;;;17.85;63.80;97628.31;2063250;28;20057;-74
2022/12/09 03:11:19;;;;;;;1.92;1.00;;;;;;;17.84;63.50;97626.69;2066689;28;21010;-74
2022/12/09 03:12:22;;;;;;;1.38;0.93;;;;;;;17.85;63.53;97631.81;2056119;28;21404;-74
2022/12/09 03:13:37;;;;;;;1.77;1.23;;;;;;;17.84;63.71;97624.00;2061393;28;20108;-74
2022/12/09 03:14:41;;;;;;;1.20;0.90;;;;;;;17.84;63.54;97632.88;2055975;28;20866;-73
2022/12/09 03:15:48;;;;;;;1.25;1.08;;;;;;;17.83;63.53;97631.25;2059179;28;20098;-74
2022/12/09 03:16:55;;;;;;;1.98;1.30;;;;;;;17.84;63.47;97629.38;2062847;28;20133;-73
2022/12/09 03:18:00;;;;;;;1.38;1.15;;;;;;;17.82;63.53;97624.22;2050490;28;20501;-74
2022/12/09 03:19:08;;;;;;;1.40;1.05;;;;;;;17.82;63.51;97623.41;2057114;28;20431;-73
2022/12/09 03:20:12;;;;;;;1.70;1.15;;;;;;;17.82;63.77;97618.84;2056798;28;20050;-74
2022/12/09 03:21:20;;;;;;;1.30;0.90;;;;;;;17.82;63.74;97613.50;2057101;28;20060;-73
2022/12/09 03:22:27;;;;;;;2.05;1.40;;;;;;;17.80;63.63;97615.59;2061621;28;20049;-74
2022/12/09 03:23:30;;;;;;;1.38;1.10;;;;;;;17.81;63.67;97613.72;2059250;28;20498;-73
2022/12/09 03:24:35;;;;;;;1.85;1.08;;;;;;;17.82;63.61;97605.44;2066562;28;20783;-74
2022/12/09 03:25:40;;;;;;;1.10;1.00;;;;;;;17.82;63.71;97602.75;2064009;28;20444;-73
2022/12/09 03:26:42;;;;;;;1.38;1.08;;;;;;;17.80;63.61;97604.03;2052752;28;20412;-73
2022/12/09 03:27:50;;;;;;;1.40;1.30;;;;;;;17.81;63.40;97603.00;2050804;28;20443;-73
2022/12/09 03:28:53;;;;;;;1.70;1.15;;;;;;;17.80;63.44;97602.19;2049382;28;20061;-74
2022/12/09 03:29:58;;;;;;;1.00;0.80;;;;;;;17.80;63.68;97601.34;2050756;28;22566;-74
2022/12/09 03:31:03;;;;;;;1.38;1.27;;;;;;;17.78;63.57;97596.22;2058442;28;20057;-73
2022/12/09 03:32:05;;;;;;;2.42;1.52;;;;;;;17.77;63.60;97596.41;2056644;28;20049;-74
2022/12/09 03:33:08;;;;;;;1.95;0.95;;;;;;;17.77;63.63;97596.41;2062280;28;20053;-74
2022/12/09 03:34:14;;;;;;;1.10;0.98;;;;;;;17.79;63.58;97597.03;2060930;28;20050;-73
2022/12/09 03:35:20;;;;;;;1.38;1.27;;;;;;;17.79;63.62;97591.66;2061580;28;20482;-73
2022/12/09 03:36:26;;;;;;;0.93;0.82;;;;;;;17.76;63.59;97592.09;2064419;28;20133;-74
2022/12/09 03:37:28;;;;;;;0.95;0.77;;;;;;;17.76;63.57;97592.09;2063564;28;20107;-74
2022/12/09 03:38:35;;;;;;;1.55;0.82;;;;;;;17.76;63.66;97590.22;2060044;28;20096;-73
2022/12/09 03:39:38;;;;;;;1.23;1.10;;;;;;;17.74;63.72;97589.63;2066481;28;20058;-73
2022/12/09 03:40:42;;;;;;;1.30;1.10;;;;;;;17.74;63.60;97588.78;2061666;28;20049;-74
2022/12/09 03:41:45;;;;;;;1.77;1.50;;;;;;;17.75;63.64;97585.09;2059749;28;20050;-74
2022/12/09 03:42:52;;;;;;;1.85;1.27;;;;;;;17.74;63.60;97583.44;2064894;28;20046;-73
2022/12/09 03:43:57;;;;;;;1.30;1.20;;;;;;;17.73;63.86;97579.13;2048834;28;20050;-73
2022/12/09 03:45:02;;;;;;;1.40;1.00;;;;;;;17.73;63.56;97581.81;2055119;28;20110;-74
2022/12/09 03:46:04;;;;;;;1.50;1.20;;;;;;;17.73;63.61;97571.91;2059097;28;20046;-73
2022/12/09 03:47:06;;;;;;;1.50;1.38;;;;;;;17.74;63.54;97573.53;2060892;28;21933;-73
2022/12/09 03:48:09;;;;;;;2.05;1.33;;;;;;;17.74;63.45;97568.16;2060863;28;20054;-73
2022/12/09 03:49:11;;;;;;;1.17;1.00;;;;;;;17.74;63.49;97567.34;2060076;28;20053;-73
2022/12/09 03:50:12;;;;;;;1.50;1.17;;;;;;;17.70;63.84;97566.97;2064546;28;20681;-73
2022/12/09 03:51:18;;;;;;;1.20;1.05;;;;;;;17.71;63.46;97562.44;2058096;28;20104;-74
2022/12/09 03:52:26;;;;;;;1.20;1.10;;;;;;;17.70;63.51;97563.47;2062443;28;20092;-73
2022/12/09 03:53:34;;;;;;;1.75;1.00;;;;;;;17.71;63.67;97562.44;2056951;28;20049;-73
2022/12/09 03:54:41;;;;;;;1.27;1.00;;;;;;;17.70;63.59;97560.81;2054087;28;20053;-73
2022/12/09 03:55:47;;;;;;;1.00;0.93;;;;;;;17.71;63.64;97557.06;2057273;28;20061;-74
2022/12/09 03:56:52;;;;;;;2.38;1.42;;;;;;;17.70;63.56;97555.44;2058308;28;20053;-73
2022/12/09 03:57:57;;;;;;;0.73;0.70;;;;;;;17.69;63.60;97548.41;2054010;28;20074;-73
2022/12/09 03:59:01;;;;;;;1.10;1.00;;;;;;;17.67;63.63;97545.97;2059342;28;21619;-73
2022/12/09 04:00:05;;;;;;;2.33;1.50;;;;;;;17.70;63.59;97550.06;2066325;28;20061;-73
2022/12/09 04:01:06;;;;;;;1.30;0.90;;;;;;;17.68;63.76;97550.28;2039750;28;20057;-73
2022/12/09 04:02:08;;;;;;;1.20;0.95;;;;;;;17.68;63.65;97546.78;2063263;28;20112;-74
2022/12/09 04:03:12;;;;;;;1.55;1.13;;;;;;;17.69;63.52;97540.38;2060193;28;20045;-73
2022/12/09 04:04:15;;;;;;;2.10;1.42;;;;;;;17.68;63.69;97546.78;2060109;28;20761;-73
2022/12/09 04:05:16;;;;;;;1.33;1.10;;;;;;;17.66;63.71;97538.94;2053716;28;20167;-73
2022/12/09 04:06:18;;;;;;;1.08;0.98;;;;;;;17.65;63.63;97543.50;2057327;28;20156;-74
2022/12/09 04:07:20;;;;;;;1.02;0.93;;;;;;;17.67;63.57;97529.06;2062012;28;20317;-73
2022/12/09 04:08:22;;;;;;;0.82;0.68;;;;;;;17.67;63.57;97537.94;2056405;28;20107;-73
2022/12/09 04:09:23;;;;;;;1.02;0.88;;;;;;;17.67;63.55;97534.44;2061291;28;20046;-73
2022/12/09 04:10:24;;;;;;;;;;;;;;;17.53;63.85;97526.53;2056392;28;20057;-73
2022/12/09 04:11:25;;;;;;;1.05;0.95;;;;;;;17.55;63.90;97528.97;2064649;28;19926;-74
2022/12/09 04:12:27;;;;;;;;;;;;;;;17.47;64.23;97523.91;2065403;28;20060;-74
2022/12/09 04:13:27;;;;;;;0.88;0.75;;;;;;;17.52;64.08;97522.19;2069405;28;20855;-74
2022/12/09 04:14:29;;;;;;;;;;;;;;;17.41;64.32;97521.09;2057521;28;20054;-73
2022/12/09 04:15:30;;;;;;;1.15;1.00;;;;;;;17.49;64.17;97519.16;2064989;28;20035;-73
2022/12/09 04:16:31;;;;;;;;;;;;;;;17.39;64.20;97508.97;2056471;28;20058;-74
2022/12/09 04:17:32;;;;;;;1.25;0.90;;;;;;;17.44;64.29;97506.44;2053515;28;19929;-73
2022/12/09 04:18:34;;;;;;;;;;;;;;;17.38;64.58;97510.00;2057596;28;20062;-73
2022/12/09 04:19:35;;;;;;;1.75;1.30;;;;;;;17.45;64.36;97505.38;2061839;28;19925;-74
2022/12/09 04:20:36;;;;;;;;;;;;;;;17.38;64.38;97504.63;2054135;28;20345;-74
2022/12/09 04:21:37;;;;;;;1.27;1.13;;;;;;;17.45;64.31;97504.56;2050601;28;20435;-75
2022/12/09 04:22:40;;;;;;;;;;;;;;;17.36;64.46;97494.16;2062522;28;20053;-74
2022/12/09 04:23:41;;;;;;;1.10;1.00;;;;;;;17.44;64.29;97490.34;2052161;28;20422;-74
2022/12/09 04:24:42;;;;;;;;;;;;;;;17.37;64.37;97492.28;2052491;28;20064;-74
2022/12/09 04:25:43;;;;;;;1.00;0.80;;;;;;;17.43;64.18;97492.19;2054912;28;19951;-74
2022/12/09 04:26:45;;;;;;;;;;;;;;;17.36;64.23;97493.34;2059123;28;20857;-74
2022/12/09 04:27:45;;;;;;;1.27;0.80;;;;;;;17.42;64.27;97489.75;2054133;28;19959;-74
2022/12/09 04:28:47;;;;;;;;;;;;;;;17.35;64.40;97489.00;2062821;28;20158;-74
2022/12/09 04:29:48;;;;;;;1.55;0.95;;;;;;;17.41;64.38;97491.63;2057015;28;19952;-74
2022/12/09 04:30:49;;;;;;;;;;;;;;;17.35;64.57;97494.34;2065537;28;20113;-74
2022/12/09 04:31:50;;;;;;;0.70;0.60;;;;;;;17.41;64.15;97493.47;2060159;28;20343;-74
2022/12/09 04:32:52;;;;;;;;;;;;;;;17.36;64.43;97491.47;2055605;28;20053;-73
2022/12/09 04:33:52;;;;;;;1.40;1.23;;;;;;;17.42;64.23;97476.34;2057458;28;19928;-74
2022/12/09 04:34:54;;;;;;;;;;;;;;;17.33;64.35;97478.50;2061774;28;20797;-74
2022/12/09 04:36:02;;;;;;;0.80;0.80;;;;;;;17.39;64.26;97479.47;2062001;28;19933;-74
2022/12/09 04:37:04;;;;;;;1.38;1.10;;;;;;;17.45;64.10;97486.63;2056101;28;20726;-74
2022/12/09 04:38:06;;;;;;;1.38;1.27;;;;;;;17.49;63.91;97482.44;2063949;28;20077;-74
2022/12/09 04:39:08;;;;;;;0.85;0.82;;;;;;;17.51;63.99;97471.50;2063158;28;20045;-74
2022/12/09 04:40:10;;;;;;;2.22;1.30;;;;;;;17.53;63.99;97474.78;2063416;28;20139;-74
2022/12/09 04:41:12;;;;;;;1.63;0.82;;;;;;;17.54;63.72;97471.06;2064250;28;20049;-74
2022/12/09 04:42:13;;;;;;;1.10;1.00;;;;;;;17.51;63.74;97466.94;2063661;28;20088;-74
2022/12/09 04:43:14;;;;;;;;;;;;;;;17.42;64.17;97474.47;2058133;28;21469;-74
2022/12/09 04:44:15;;;;;;;1.98;1.10;;;;;;;17.42;64.11;97476.34;2061788;28;19929;-74
2022/12/09 04:45:16;;;;;;;;;;;;;;;17.33;64.38;97470.47;2067721;28;20037;-74
2022/12/09 04:46:17;;;;;;;;;;;;;;;17.27;64.61;97475.88;2064909;28;19929;-74
2022/12/09 04:47:19;;;;;;;2.27;1.27;;;;;;;17.33;64.43;97472.34;2065514;28;19929;-74
2022/12/09 04:48:20;;;;;;;1.42;1.10;;;;;;;17.41;64.12;97472.00;2065232;28;20297;-74
2022/12/09 04:49:21;;;;;;;;;;;;;;;17.32;64.16;97474.19;2058910;28;20110;-74
2022/12/09 04:50:22;;;;;;;0.80;0.80;;;;;;;17.40;64.20;97470.38;2061429;28;19921;-74
2022/12/09 04:51:24;;;;;;;;;;;;;;;17.36;64.25;97472.69;2067003;28;20045;-74
2022/12/09 04:52:24;;;;;;;1.10;1.00;;;;;;;17.43;64.09;97470.75;2064797;28;19921;-74
2022/12/09 04:53:27;;;;;;;;;;;;;;;17.48;63.78;97472.75;2064796;28;20042;-74
2022/12/09 04:54:28;;;;;;;1.00;0.98;;;;;;;17.56;63.73;97477.81;2059754;28;20190;-74
2022/12/09 04:55:29;;;;;;;;;;;;;;;17.54;63.73;97474.53;2052610;28;20049;-74
2022/12/09 04:56:31;;;;;;;1.00;0.95;;;;;;;17.65;63.46;97476.47;2065670;28;19933;-74
2022/12/09 04:57:33;;;;;;;1.00;0.80;;;;;;;17.75;63.40;97470.59;2058242;28;20511;-74
2022/12/09 04:58:34;;;;;;;1.58;1.10;;;;;;;17.84;63.09;97476.47;2063897;28;20057;-74
2022/12/09 04:59:35;;;;;;;;;;;;;;;17.82;63.19;97473.19;2060142;28;20823;-73
2022/12/09 05:00:36;;;;;;;;;;;;;;;17.78;63.48;97469.31;2067728;28;19926;-74
2022/12/09 05:01:38;;;;;;;0.70;0.70;;;;;;;17.84;63.39;97466.56;2058699;28;19922;-73
2022/12/09 05:02:38;;;;;;;2.25;1.40;;;;;;;17.90;63.34;97464.84;2054288;28;20062;-74
2022/12/09 05:03:40;;;;;;;;;;;;;;;17.87;63.61;97470.66;2058489;28;20107;-74
2022/12/09 05:04:41;;;;;;;;;;;;;;;17.85;63.59;97465.50;2044481;28;19925;-74
2022/12/09 05:05:43;;;;;;;1.55;1.10;;;;;;;17.94;63.50;97457.16;2054804;28;20044;-74